createdAt,value
2024-03-12T00:01:54.333Z,1006.5
2024-03-12T00:04:53.376Z,1006.5
2024-03-12T00:07:53.277Z,1006.5
2024-03-12T00:10:53.451Z,1006.5
2024-03-12T00:13:53.370Z,1006.5
2024-03-12T00:16:53.648Z,1006.6
2024-03-12T00:19:53.510Z,1006.6
2024-03-12T00:22:53.389Z,1006.6
2024-03-12T00:25:53.838Z,1006.7
2024-03-12T00:28:53.337Z,1006.8
2024-03-12T00:31:53.986Z,1006.8
2024-03-12T00:34:53.987Z,1006.8
2024-03-12T00:37:53.441Z,1006.9
2024-03-12T00:40:53.592Z,1006.9
2024-03-12T00:43:53.599Z,1006.9
2024-03-12T00:46:53.617Z,1007.0
2024-03-12T00:49:55.186Z,1007.0
2024-03-12T00:52:53.431Z,1007.1
2024-03-12T00:55:53.864Z,1007.2
2024-03-12T00:58:54.460Z,1007.2
2024-03-12T01:01:54.246Z,1007.2
2024-03-12T01:04:53.603Z,1007.2
2024-03-12T01:07:53.537Z,1007.2
2024-03-12T01:10:54.364Z,1007.3
2024-03-12T01:13:53.474Z,1007.2
2024-03-12T01:16:53.676Z,1007.2
2024-03-12T01:19:53.599Z,1007.3
2024-03-12T01:22:53.529Z,1007.2
2024-03-12T01:25:55.001Z,1007.3
2024-03-12T01:28:53.346Z,1007.2
2024-03-12T01:31:53.576Z,1007.2
2024-03-12T01:34:53.654Z,1007.2
2024-03-12T01:37:53.643Z,1007.2
2024-03-12T01:40:54.356Z,1007.2
2024-03-12T01:43:53.822Z,1007.2
2024-03-12T01:46:53.567Z,1007.3
2024-03-12T01:49:53.776Z,1007.3
2024-03-12T01:52:53.692Z,1007.3
2024-03-12T01:55:53.631Z,1007.3
2024-03-12T01:58:53.341Z,1007.4
2024-03-12T02:01:54.387Z,1007.4
2024-03-12T02:04:54.168Z,1007.5
2024-03-12T02:07:53.408Z,1007.4
2024-03-12T02:10:53.818Z,1007.4
2024-03-12T02:13:53.905Z,1007.5
2024-03-12T02:16:53.369Z,1007.4
2024-03-12T02:19:53.677Z,1007.4
2024-03-12T02:22:53.733Z,1007.5
2024-03-12T02:25:53.773Z,1007.5
2024-03-12T02:28:53.458Z,1007.5
2024-03-12T02:31:54.328Z,1007.5
2024-03-12T02:34:53.476Z,1007.5
2024-03-12T02:37:53.232Z,1007.6
2024-03-12T02:40:53.550Z,1007.6
2024-03-12T02:43:53.502Z,1007.6
2024-03-12T02:46:55.245Z,1007.7
2024-03-12T02:49:53.682Z,1007.7
2024-03-12T02:52:53.821Z,1007.7
2024-03-12T02:55:53.371Z,1007.7
2024-03-12T02:58:53.282Z,1007.7
2024-03-12T03:01:54.310Z,1007.7
2024-03-12T03:04:54.317Z,1007.7
2024-03-12T03:07:53.284Z,1007.8
2024-03-12T03:10:54.116Z,1007.8
2024-03-12T03:13:53.548Z,1007.8
2024-03-12T03:16:53.563Z,1007.8
2024-03-12T03:19:53.774Z,1007.8
2024-03-12T03:22:53.577Z,1007.8
2024-03-12T03:25:53.406Z,1007.9
2024-03-12T03:28:53.424Z,1007.9
2024-03-12T03:31:53.327Z,1007.9
2024-03-12T03:34:53.738Z,1007.9
2024-03-12T03:37:53.630Z,1007.9
2024-03-12T03:40:53.764Z,1008.0
2024-03-12T03:43:54.221Z,1008.1
2024-03-12T03:46:53.658Z,1008.1
2024-03-12T03:49:53.560Z,1008.1
2024-03-12T03:52:53.888Z,1008.2
2024-03-12T03:55:53.704Z,1008.2
2024-03-12T03:58:53.504Z,1008.2
2024-03-12T04:01:54.145Z,1008.2
2024-03-12T04:04:53.477Z,1008.2
2024-03-12T04:07:56.536Z,1008.3
2024-03-12T04:10:53.744Z,1008.3
2024-03-12T04:13:53.600Z,1008.4
2024-03-12T04:16:53.323Z,1008.4
2024-03-12T04:19:53.569Z,1008.5
2024-03-12T04:22:53.691Z,1008.5
2024-03-12T04:25:53.953Z,1008.6
2024-03-12T04:28:53.468Z,1008.6
2024-03-12T04:31:53.571Z,1008.6
2024-03-12T04:34:53.729Z,1008.6
2024-03-12T04:37:53.510Z,1008.6
2024-03-12T04:40:54.320Z,1008.7
2024-03-12T04:43:53.472Z,1008.7
2024-03-12T04:46:54.056Z,1008.7
2024-03-12T04:49:53.494Z,1008.7
2024-03-12T04:52:53.523Z,1008.8
2024-03-12T04:55:54.317Z,1008.8
2024-03-12T04:58:53.389Z,1008.8
2024-03-12T05:01:54.953Z,1008.8
2024-03-12T05:05:03.993Z,1008.9
2024-03-12T05:07:54.183Z,1009.0
2024-03-12T05:10:53.674Z,1009.0
2024-03-12T05:13:53.744Z,1009.0
2024-03-12T05:16:57.465Z,1009.0
2024-03-12T05:19:53.658Z,1009.1
2024-03-12T05:22:53.596Z,1009.1
2024-03-12T05:25:53.695Z,1009.2
2024-03-12T05:28:54.316Z,1009.2
2024-03-12T05:31:53.769Z,1009.2
2024-03-12T05:34:54.105Z,1009.3
2024-03-12T05:37:53.507Z,1009.4
2024-03-12T05:40:53.531Z,1009.5
2024-03-12T05:43:53.640Z,1009.5
2024-03-12T05:46:54.080Z,1009.6
2024-03-12T05:49:53.880Z,1009.6
2024-03-12T05:52:53.441Z,1009.7
2024-03-12T05:55:53.387Z,1009.7
2024-03-12T05:58:53.413Z,1009.7
2024-03-12T06:01:53.960Z,1009.7
2024-03-12T06:04:53.373Z,1009.7
2024-03-12T06:07:53.856Z,1009.7
2024-03-12T06:10:53.528Z,1009.8
2024-03-12T06:13:53.357Z,1009.8
2024-03-12T06:16:53.606Z,1009.9
2024-03-12T06:19:53.479Z,1009.9
2024-03-12T06:22:53.379Z,1009.9
2024-03-12T06:25:56.280Z,1010.0
2024-03-12T06:28:55.940Z,1010.0
2024-03-12T06:31:54.388Z,1010.0
2024-03-12T06:34:53.190Z,1010.1
2024-03-12T06:37:53.325Z,1010.1
2024-03-12T06:40:53.313Z,1010.1
2024-03-12T06:43:53.236Z,1010.2
2024-03-12T06:46:53.450Z,1010.2
2024-03-12T06:49:53.358Z,1010.2
2024-03-12T06:52:53.452Z,1010.3
2024-03-12T06:55:53.830Z,1010.3
2024-03-12T06:58:53.200Z,1010.3
2024-03-12T07:01:53.328Z,1010.3
2024-03-12T07:04:57.129Z,1010.4
2024-03-12T07:07:53.532Z,1010.4
2024-03-12T07:10:53.404Z,1010.4
2024-03-12T07:13:53.228Z,1010.5
2024-03-12T07:16:53.594Z,1010.6
2024-03-12T07:19:53.655Z,1010.6
2024-03-12T07:22:53.285Z,1010.7
2024-03-12T07:25:53.517Z,1010.7
2024-03-12T07:28:57.134Z,1010.7
2024-03-12T07:31:53.471Z,1010.8
2024-03-12T07:34:53.549Z,1010.7
2024-03-12T07:37:53.287Z,1010.8
2024-03-12T07:40:53.582Z,1010.8
2024-03-12T07:43:53.248Z,1010.8
2024-03-12T07:46:53.739Z,1010.8
2024-03-12T07:49:53.394Z,1010.8
2024-03-12T07:52:56.679Z,1010.9
2024-03-12T07:55:53.234Z,1010.9
2024-03-12T07:58:55.663Z,1010.9
2024-03-12T08:01:54.223Z,1010.9
2024-03-12T08:04:53.679Z,1011.0
2024-03-12T08:07:53.517Z,1011.0
2024-03-12T08:10:53.499Z,1011.0
2024-03-12T08:13:55.812Z,1011.1
2024-03-12T08:16:53.509Z,1011.1
2024-03-12T08:22:53.515Z,1011.2
2024-03-12T08:28:53.483Z,1011.2
2024-03-12T08:32:16.284Z,1011.2
2024-03-12T08:34:53.723Z,1011.2
2024-03-12T08:37:55.090Z,1011.2
2024-03-12T08:40:53.656Z,1011.3
2024-03-12T08:46:54.870Z,1011.3
2024-03-12T08:49:53.496Z,1011.3
2024-03-12T08:52:53.529Z,1011.3
2024-03-12T08:55:53.830Z,1011.3
2024-03-12T08:58:54.068Z,1011.3
2024-03-12T09:01:55.078Z,1011.3
2024-03-12T09:04:54.820Z,1011.4
2024-03-12T09:07:53.540Z,1011.4
2024-03-12T09:10:57.422Z,1011.4
2024-03-12T09:13:53.717Z,1011.4
2024-03-12T09:16:53.513Z,1011.4
2024-03-12T09:19:53.912Z,1011.4
2024-03-12T09:22:53.597Z,1011.5
2024-03-12T09:25:55.788Z,1011.5
2024-03-12T09:28:53.550Z,1011.5
2024-03-12T09:31:55.717Z,1011.5
2024-03-12T09:34:53.794Z,1011.5
2024-03-12T09:37:53.774Z,1011.5
2024-03-12T09:40:53.680Z,1011.5
2024-03-12T09:43:53.541Z,1011.6
2024-03-12T09:46:53.770Z,1011.6
2024-03-12T09:49:53.635Z,1011.7
2024-03-12T09:52:53.397Z,1011.7
2024-03-12T09:55:54.009Z,1011.7
2024-03-12T09:58:54.751Z,1011.7
2024-03-12T10:01:53.844Z,1011.8
2024-03-12T10:04:53.979Z,1011.7
2024-03-12T10:07:53.450Z,1011.7
2024-03-12T10:10:53.611Z,1011.7
2024-03-12T10:13:53.360Z,1011.7
2024-03-12T10:16:53.700Z,1011.7
2024-03-12T10:19:53.834Z,1011.7
2024-03-12T10:22:53.788Z,1011.7
2024-03-12T10:25:53.454Z,1011.7
2024-03-12T10:31:53.894Z,1011.7
2024-03-12T10:34:54.288Z,1011.8
2024-03-12T10:37:54.506Z,1011.8
2024-03-12T10:40:53.995Z,1011.8
2024-03-12T10:43:54.417Z,1011.8
2024-03-12T10:46:55.430Z,1011.8
2024-03-12T10:49:55.724Z,1011.8
2024-03-12T10:52:53.465Z,1011.8
2024-03-12T10:58:53.698Z,1011.9
2024-03-12T11:01:54.136Z,1011.9
2024-03-12T11:04:53.425Z,1011.9
2024-03-12T11:07:53.738Z,1011.9
2024-03-12T11:10:53.974Z,1011.9
2024-03-12T11:13:53.432Z,1011.9
2024-03-12T11:16:53.832Z,1011.8
2024-03-12T11:19:53.464Z,1011.8
2024-03-12T11:22:53.560Z,1011.8
2024-03-12T11:25:53.440Z,1011.8
2024-03-12T11:28:53.363Z,1011.8
2024-03-12T11:31:53.742Z,1011.8
2024-03-12T11:37:53.438Z,1011.8
2024-03-12T11:40:54.473Z,1011.8
2024-03-12T11:43:53.809Z,1011.8
2024-03-12T11:46:54.729Z,1011.8
2024-03-12T11:49:53.368Z,1011.8
2024-03-12T11:52:53.376Z,1011.8
2024-03-12T11:55:54.202Z,1011.8
2024-03-12T11:58:57.431Z,1011.8
2024-03-12T12:01:54.094Z,1011.8
2024-03-12T12:04:53.974Z,1011.7
2024-03-12T12:07:54.043Z,1011.7
2024-03-12T12:10:54.977Z,1011.6
2024-03-12T12:13:53.443Z,1011.6
2024-03-12T12:16:54.136Z,1011.6
2024-03-12T12:20:00.236Z,1011.6
2024-03-12T12:22:53.675Z,1011.5
2024-03-12T12:25:53.916Z,1011.5
2024-03-12T12:28:53.455Z,1011.5
2024-03-12T12:31:55.021Z,1011.5
2024-03-12T12:34:53.733Z,1011.5
2024-03-12T12:37:53.432Z,1011.5
2024-03-12T12:43:53.857Z,1011.5
2024-03-12T12:46:54.261Z,1011.5
2024-03-12T12:49:53.801Z,1011.5
2024-03-12T12:52:53.686Z,1011.5
2024-03-12T12:55:54.271Z,1011.5
2024-03-12T12:58:53.546Z,1011.4
2024-03-12T13:01:54.313Z,1011.5
2024-03-12T13:04:53.685Z,1011.5
2024-03-12T13:07:53.632Z,1011.4
2024-03-12T13:10:53.934Z,1011.4
2024-03-12T13:13:53.584Z,1011.4
2024-03-12T13:16:53.414Z,1011.4
2024-03-12T13:19:53.948Z,1011.4
2024-03-12T13:23:04.053Z,1011.4
2024-03-12T13:25:53.318Z,1011.4
2024-03-12T13:28:53.725Z,1011.4
2024-03-12T13:31:55.965Z,1011.3
2024-03-12T13:34:53.928Z,1011.3
2024-03-12T13:37:54.054Z,1011.3
2024-03-12T13:40:54.066Z,1011.4
2024-03-12T13:43:53.766Z,1011.3
2024-03-12T13:46:54.840Z,1011.3
2024-03-12T13:49:53.876Z,1011.3
2024-03-12T13:52:53.583Z,1011.2
2024-03-12T13:55:53.875Z,1011.2
2024-03-12T13:58:53.688Z,1011.2
2024-03-12T14:01:54.595Z,1011.2
2024-03-12T14:04:54.695Z,1011.2
2024-03-12T14:07:54.087Z,1011.2
2024-03-12T14:10:55.148Z,1011.3
2024-03-12T14:13:53.686Z,1011.3
2024-03-12T14:16:55.727Z,1011.2
2024-03-12T14:19:53.805Z,1011.3
2024-03-12T14:22:55.122Z,1011.2
2024-03-12T14:25:53.364Z,1011.3
2024-03-12T14:28:53.790Z,1011.3
2024-03-12T14:31:53.628Z,1011.2
2024-03-12T14:34:53.756Z,1011.2
2024-03-12T14:37:53.628Z,1011.2
2024-03-12T14:40:53.605Z,1011.2
2024-03-12T14:43:53.478Z,1011.2
2024-03-12T14:46:53.761Z,1011.2
2024-03-12T14:49:54.967Z,1011.1
2024-03-12T14:52:53.440Z,1011.1
2024-03-12T14:55:56.182Z,1011.0
2024-03-12T14:58:53.783Z,1011.0
2024-03-12T15:01:56.938Z,1011.0
2024-03-12T15:04:53.874Z,1011.0
2024-03-12T15:07:53.547Z,1011.0
2024-03-12T15:10:53.621Z,1011.0
2024-03-12T15:13:53.414Z,1011.0
2024-03-12T15:16:53.609Z,1011.0
2024-03-12T15:19:55.184Z,1011.0
2024-03-12T15:22:53.642Z,1011.0
2024-03-12T15:25:54.748Z,1011.0
2024-03-12T15:28:53.676Z,1011.0
2024-03-12T15:31:53.927Z,1011.0
2024-03-12T15:34:54.132Z,1011.0
2024-03-12T15:37:53.489Z,1011.0
2024-03-12T15:40:53.833Z,1010.9
2024-03-12T15:43:53.423Z,1010.9
2024-03-12T15:46:54.137Z,1010.9
2024-03-12T15:49:53.933Z,1010.8
2024-03-12T15:52:53.971Z,1010.9
2024-03-12T15:55:55.058Z,1010.9
2024-03-12T15:58:53.694Z,1010.8
2024-03-12T16:01:54.178Z,1010.9
2024-03-12T16:04:54.092Z,1010.8
2024-03-12T16:07:54.257Z,1010.8
2024-03-12T16:10:55.027Z,1010.8
2024-03-12T16:13:53.608Z,1010.8
2024-03-12T16:16:54.336Z,1010.8
2024-03-12T16:19:54.739Z,1010.8
2024-03-12T16:22:54.090Z,1010.8
2024-03-12T16:25:54.394Z,1010.8
2024-03-12T16:28:53.883Z,1010.7
2024-03-12T16:31:54.166Z,1010.8
2024-03-12T16:34:53.993Z,1010.8
2024-03-12T16:37:57.242Z,1010.8
2024-03-12T16:40:54.022Z,1010.8
2024-03-12T16:43:56.604Z,1010.9
2024-03-12T16:46:53.696Z,1010.8
2024-03-12T16:49:59.175Z,1010.8
2024-03-12T16:52:53.719Z,1010.8
2024-03-12T16:55:54.601Z,1010.8
2024-03-12T16:58:54.004Z,1010.8
2024-03-12T17:01:54.595Z,1010.8
2024-03-12T17:04:56.169Z,1010.8
2024-03-12T17:07:53.368Z,1010.8
2024-03-12T17:10:53.788Z,1010.8
2024-03-12T17:13:53.432Z,1010.8
2024-03-12T17:16:53.446Z,1010.8
2024-03-12T17:19:54.103Z,1010.8
2024-03-12T17:31:53.661Z,1010.7
2024-03-12T17:34:53.754Z,1010.7
2024-03-12T17:37:53.953Z,1010.7
2024-03-12T17:40:55.766Z,1010.8
2024-03-12T17:43:53.574Z,1010.7
2024-03-12T17:46:54.291Z,1010.8
2024-03-12T17:49:55.464Z,1010.8
2024-03-12T17:52:53.678Z,1010.8
2024-03-12T17:55:53.577Z,1010.8
2024-03-12T17:58:53.947Z,1010.8
2024-03-12T18:01:54.361Z,1010.8
2024-03-12T18:04:54.293Z,1010.8
2024-03-12T18:07:53.640Z,1010.8
2024-03-12T18:10:53.702Z,1010.8
2024-03-12T18:13:53.911Z,1010.8
2024-03-12T18:16:55.085Z,1010.9
2024-03-12T18:19:53.526Z,1011.0
2024-03-12T18:22:53.532Z,1010.9
2024-03-12T18:25:53.743Z,1010.9
2024-03-12T18:28:53.514Z,1010.9
2024-03-12T18:31:53.580Z,1010.9
2024-03-12T18:34:53.566Z,1010.9
2024-03-12T18:37:53.459Z,1010.8
2024-03-12T18:40:53.969Z,1010.8
2024-03-12T18:43:53.769Z,1010.9
2024-03-12T18:46:53.508Z,1010.9
2024-03-12T18:49:53.877Z,1010.9
2024-03-12T18:52:55.405Z,1010.8
2024-03-12T18:55:53.313Z,1010.8
2024-03-12T18:58:53.792Z,1010.7
2024-03-12T19:01:53.842Z,1010.6
2024-03-12T19:04:53.956Z,1010.5
2024-03-12T19:08:03.936Z,1010.4
2024-03-12T19:10:54.191Z,1010.4
2024-03-12T19:13:53.645Z,1010.4
2024-03-12T19:16:54.032Z,1010.4
2024-03-12T19:19:55.407Z,1010.4
2024-03-12T19:22:53.760Z,1010.3
2024-03-12T19:25:55.865Z,1010.3
2024-03-12T19:29:01.904Z,1010.3
2024-03-12T19:31:53.773Z,1010.3
2024-03-12T19:34:54.054Z,1010.3
2024-03-12T19:37:53.321Z,1010.3
2024-03-12T19:40:53.987Z,1010.3
2024-03-12T19:43:53.490Z,1010.3
2024-03-12T19:46:53.615Z,1010.3
2024-03-12T19:49:58.223Z,1010.3
2024-03-12T19:52:53.472Z,1010.4
2024-03-12T19:55:53.856Z,1010.4
2024-03-12T19:58:53.625Z,1010.4
2024-03-12T20:01:57.990Z,1010.3
2024-03-12T20:04:53.620Z,1010.4
2024-03-12T20:07:56.102Z,1010.4
2024-03-12T20:10:54.098Z,1010.4
2024-03-12T20:13:53.502Z,1010.4
2024-03-12T20:16:53.554Z,1010.4
2024-03-12T20:19:53.727Z,1010.4
2024-03-12T20:22:53.468Z,1010.3
2024-03-12T20:25:53.626Z,1010.3
2024-03-12T20:28:53.546Z,1010.4
2024-03-12T20:31:55.461Z,1010.3
2024-03-12T20:34:54.497Z,1010.2
2024-03-12T20:37:55.699Z,1010.3
2024-03-12T20:40:53.816Z,1010.3
2024-03-12T20:43:56.595Z,1010.3
2024-03-12T20:46:54.640Z,1010.5
2024-03-12T20:49:55.268Z,1010.6
2024-03-12T20:52:53.317Z,1010.5
2024-03-12T20:55:53.511Z,1010.4
2024-03-12T20:58:54.192Z,1010.5
2024-03-12T21:01:54.158Z,1010.5
2024-03-12T21:04:55.634Z,1010.5
2024-03-12T21:07:53.608Z,1010.4
2024-03-12T21:10:54.043Z,1010.3
2024-03-12T21:13:54.121Z,1010.3
2024-03-12T21:16:54.042Z,1010.3
2024-03-12T21:19:53.760Z,1010.3
2024-03-12T21:22:53.563Z,1010.4
2024-03-12T21:25:54.339Z,1010.3
2024-03-12T21:28:53.551Z,1010.3
2024-03-12T21:31:53.696Z,1010.3
2024-03-12T21:34:53.545Z,1010.2
2024-03-12T21:37:53.327Z,1010.2
2024-03-12T21:40:53.525Z,1010.3
2024-03-12T21:43:53.465Z,1010.3
2024-03-12T21:46:53.840Z,1010.2
2024-03-12T21:49:53.490Z,1010.2
2024-03-12T21:52:53.300Z,1010.3
2024-03-12T21:55:53.588Z,1010.2
2024-03-12T21:58:53.471Z,1010.2
2024-03-12T22:01:53.625Z,1010.2
2024-03-12T22:04:53.271Z,1010.2
2024-03-12T22:07:53.289Z,1010.2
2024-03-12T22:10:53.568Z,1010.2
2024-03-12T22:14:03.773Z,1010.1
2024-03-12T22:16:54.197Z,1010.1
2024-03-12T22:19:53.428Z,1010.1
2024-03-12T22:22:54.255Z,1010.0
2024-03-12T22:25:53.631Z,1010.0
2024-03-12T22:28:53.242Z,1010.0
2024-03-12T22:31:53.757Z,1010.1
2024-03-12T22:34:53.360Z,1010.1
2024-03-12T22:37:53.243Z,1010.0
2024-03-12T22:40:53.430Z,1010.1
2024-03-12T22:43:53.414Z,1010.1
2024-03-12T22:46:55.940Z,1010.1
2024-03-12T22:49:53.444Z,1010.0
2024-03-12T22:52:53.452Z,1010.0
2024-03-12T22:55:53.468Z,1010.0
2024-03-12T22:58:53.644Z,1010.1
2024-03-12T23:01:53.979Z,1010.1
2024-03-12T23:04:53.307Z,1010.2
2024-03-12T23:07:53.318Z,1010.2
2024-03-12T23:10:53.621Z,1010.2
2024-03-12T23:16:53.580Z,1010.2
2024-03-12T23:34:53.561Z,1010.0
2024-03-12T23:37:53.424Z,1010.1
2024-03-12T23:40:53.947Z,1010.1
2024-03-12T23:43:53.636Z,1010.0
2024-03-12T23:46:56.330Z,1010.0
2024-03-12T23:49:53.636Z,1010.0
2024-03-12T23:52:53.550Z,1010.1
2024-03-12T23:55:53.271Z,1010.0
2024-03-12T23:58:53.534Z,1010.1
